Terminal Aerodrome Forecast
Issued by NWS

Home | Current Version | Previous Version | Text Only | Print | Product List | Glossary On
Versions: 1 2 3 4 5 6 7 8 9 10 11 12 13 14 15 16 17 18 19 20 21 22 23 24 25 26 27 28 29 30 31
000
FTUS45 KGJT 080026 AAA
TAFDRO
TAF AMD
KDRO 080026Z 0800/0824 36010KT P6SM -RA VCTS SCT040 BKN050 BKN070CB
     FM080200 03005KT P6SM -SHRA VCTS BKN060CB OVC080
     FM080800 02003KT P6SM VCSH SCT060 BKN080
     FM081700 07010KT P6SM VCTS BKN080CB=

USA.gov is the U.S. government's official web portal to all federal, state and local government web resources and services.